createdAt,value
2022-09-14T00:01:37.208Z,3.38
2022-09-14T00:04:07.073Z,3.72
2022-09-14T00:06:34.874Z,3.35
2022-09-14T00:09:02.943Z,3.30
2022-09-14T00:11:31.991Z,3.10
2022-09-14T00:14:01.014Z,3.22
2022-09-14T00:16:33.634Z,3.35
2022-09-14T00:19:06.531Z,3.55
2022-09-14T00:21:35.863Z,2.95
2022-09-14T00:24:04.335Z,3.30
2022-09-14T00:26:31.594Z,3.20
2022-09-14T00:29:00.223Z,3.13
2022-09-14T00:31:27.654Z,3.13
2022-09-14T00:33:55.075Z,3.17
2022-09-14T00:36:28.353Z,2.60
2022-09-14T00:41:32.243Z,2.70
2022-09-14T00:44:04.596Z,2.80
2022-09-14T00:46:37.153Z,2.92
2022-09-14T00:49:08.326Z,2.78
2022-09-14T00:51:39.973Z,2.60
2022-09-14T00:54:07.864Z,2.72
2022-09-14T00:56:35.324Z,2.65
2022-09-14T00:59:16.303Z,2.58
2022-09-14T01:01:45.117Z,3.05
2022-09-14T01:04:12.313Z,3.08
2022-09-14T01:06:52.803Z,2.40
2022-09-14T01:09:23.004Z,2.60
2022-09-14T01:12:11.254Z,3.17
2022-09-14T01:15:05.335Z,3.17
2022-09-14T01:17:35.482Z,2.70
2022-09-14T01:20:06.424Z,3.33
2022-09-14T01:22:52.946Z,3.25
2022-09-14T01:25:39.713Z,3.10
2022-09-14T01:28:14.733Z,2.85
2022-09-14T01:30:43.745Z,2.90
2022-09-14T01:33:28.463Z,3.08
2022-09-14T01:35:58.626Z,3.22
2022-09-14T01:38:45.043Z,2.22
2022-09-14T01:41:15.273Z,3.13
2022-09-14T01:43:50.671Z,3.10
2022-09-14T01:46:41.936Z,2.80
2022-09-14T01:49:27.523Z,2.83
2022-09-14T01:52:13.123Z,2.78
2022-09-14T01:54:54.393Z,3.00
2022-09-14T01:57:35.843Z,3.20
2022-09-14T02:00:08.833Z,2.83
2022-09-14T02:02:40.461Z,2.97
2022-09-14T02:05:15.583Z,2.92
2022-09-14T02:07:42.943Z,2.70
2022-09-14T02:10:13.842Z,2.67
2022-09-14T02:12:41.554Z,3.05
2022-09-14T02:15:11.325Z,2.50
2022-09-14T02:17:39.074Z,3.00
2022-09-14T02:20:11.115Z,2.42
2022-09-14T02:22:38.633Z,2.38
2022-09-14T02:25:06.253Z,2.63
2022-09-14T02:27:33.464Z,2.72
2022-09-14T02:30:00.811Z,2.65
2022-09-14T02:32:41.067Z,2.67
2022-09-14T02:35:37.403Z,2.72
2022-09-14T02:38:43.656Z,2.72
2022-09-14T02:41:37.593Z,2.83
2022-09-14T02:44:43.983Z,3.20
2022-09-14T02:47:55.423Z,2.70
2022-09-14T02:50:39.464Z,2.80
2022-09-14T02:53:10.153Z,3.03
2022-09-14T02:55:43.983Z,3.10
2022-09-14T03:00:54.384Z,2.78
2022-09-14T03:03:22.043Z,3.10
2022-09-14T03:05:49.303Z,2.80
2022-09-14T03:08:16.526Z,2.63
2022-09-14T03:10:44.863Z,3.85
2022-09-14T03:13:12.083Z,3.15
2022-09-14T03:15:39.492Z,2.60
2022-09-14T03:18:12.303Z,3.00
2022-09-14T03:20:41.773Z,2.80
2022-09-14T03:23:10.917Z,2.92
2022-09-14T03:25:40.354Z,3.33
2022-09-14T03:28:08.300Z,2.80
2022-09-14T03:30:36.145Z,2.80
2022-09-14T03:33:03.635Z,2.65
2022-09-14T03:35:31.687Z,3.25
2022-09-14T03:37:59.896Z,2.85
2022-09-14T03:40:27.690Z,2.90
2022-09-14T03:42:55.263Z,2.97
2022-09-14T03:45:22.455Z,2.90
2022-09-14T03:47:50.067Z,3.30
2022-09-14T03:50:18.903Z,3.03
2022-09-14T03:52:46.223Z,3.20
2022-09-14T03:55:13.443Z,2.70
2022-09-14T03:57:40.643Z,2.80
2022-09-14T04:00:09.403Z,3.00
2022-09-14T04:02:40.869Z,2.90
2022-09-14T04:05:08.676Z,2.95
2022-09-14T04:07:36.140Z,2.90
2022-09-14T04:10:05.844Z,3.22
2022-09-14T04:12:38.000Z,3.35
2022-09-14T04:15:07.087Z,3.40
2022-09-14T04:17:35.017Z,2.63
2022-09-14T04:20:02.397Z,2.65
2022-09-14T04:22:29.548Z,3.08
2022-09-14T04:24:56.737Z,3.30
2022-09-14T04:27:23.939Z,2.92
2022-09-14T04:29:51.527Z,2.63
2022-09-14T04:32:21.819Z,2.97
2022-09-14T04:34:49.787Z,3.25
2022-09-14T04:37:16.947Z,2.95
2022-09-14T04:39:44.181Z,3.25
2022-09-14T04:42:11.389Z,3.17
2022-09-14T04:44:38.610Z,3.95
2022-09-14T04:47:05.868Z,3.50
2022-09-14T04:49:33.156Z,3.78
2022-09-14T04:52:00.246Z,3.63
2022-09-14T04:54:27.537Z,4.10
2022-09-14T04:56:54.727Z,4.28
2022-09-14T04:59:21.936Z,5.82
2022-09-14T05:01:49.243Z,5.20
2022-09-14T05:04:17.268Z,5.15
2022-09-14T05:06:44.797Z,6.05
2022-09-14T05:09:14.818Z,5.85
2022-09-14T05:11:42.673Z,5.90
2022-09-14T05:14:12.468Z,5.47
2022-09-14T05:16:41.938Z,5.80
2022-09-14T05:19:13.237Z,5.68
2022-09-14T05:21:40.517Z,5.70
2022-09-14T05:24:15.776Z,6.30
2022-09-14T05:26:44.627Z,6.25
2022-09-14T05:29:14.456Z,6.57
2022-09-14T05:31:42.041Z,6.55
2022-09-14T05:34:10.846Z,6.22
2022-09-14T05:36:39.265Z,6.80
2022-09-14T05:39:07.696Z,6.10
2022-09-14T05:41:35.018Z,6.93
2022-09-14T05:44:02.307Z,6.32
2022-09-14T05:46:29.766Z,7.53
2022-09-14T05:48:57.057Z,7.78
2022-09-14T05:51:26.416Z,7.32
2022-09-14T05:53:58.632Z,7.07
2022-09-14T05:56:31.891Z,6.78
2022-09-14T06:01:29.296Z,7.45
2022-09-14T06:04:00.380Z,6.32
2022-09-14T06:06:28.100Z,6.93
2022-09-14T06:08:56.380Z,7.10
2022-09-14T06:11:26.666Z,7.18
2022-09-14T06:13:55.143Z,6.95
2022-09-14T06:16:24.226Z,6.55
2022-09-14T06:18:51.799Z,5.95
2022-09-14T06:21:20.817Z,6.82
2022-09-14T06:23:49.228Z,6.60
2022-09-14T06:26:16.746Z,6.55
2022-09-14T06:28:44.137Z,5.10
2022-09-14T06:31:15.736Z,5.45
2022-09-14T06:33:47.296Z,5.22
2022-09-14T06:36:18.046Z,5.05
2022-09-14T06:38:46.156Z,4.25
2022-09-14T06:41:18.199Z,5.15
2022-09-14T06:43:46.046Z,4.88
2022-09-14T06:46:21.865Z,4.18
2022-09-14T06:49:01.709Z,4.40
2022-09-14T06:51:41.065Z,4.15
2022-09-14T06:54:10.166Z,4.25
2022-09-14T06:56:42.116Z,4.13
2022-09-14T06:59:11.247Z,4.25
2022-09-14T07:01:38.948Z,4.28
2022-09-14T07:04:06.547Z,3.75
2022-09-14T07:06:40.667Z,3.78
2022-09-14T07:09:08.217Z,3.55
2022-09-14T07:11:36.386Z,4.22
2022-09-14T07:14:03.847Z,3.40
2022-09-14T07:16:32.957Z,3.95
2022-09-14T07:19:03.197Z,3.15
2022-09-14T07:21:32.376Z,3.28
2022-09-14T07:24:00.200Z,3.05
2022-09-14T07:26:32.576Z,3.75
2022-09-14T07:29:03.384Z,3.13
2022-09-14T07:31:37.747Z,3.65
2022-09-14T07:34:06.078Z,2.88
2022-09-14T07:36:35.766Z,2.85
2022-09-14T07:39:05.746Z,3.30
2022-09-14T07:41:35.921Z,3.83
2022-09-14T07:44:05.267Z,3.20
2022-09-14T07:46:38.447Z,2.83
